VG04 weather

Yorktown Power Station Heliport
Newport News, Virginia, United States

Public forecast

Using degrees Fahrenheit for public forecast. Weather courtesy of forecast.io.

Closest aviation weather report (METAR) to Yorktown Power Station Heliport

Closest report is Newport News Williamsburg International Airport, 5.3 nm (9.8 km) SSW. Retrieved 2019/11/11 18:54 UTC (47 minutes ago):

KPHF 111854Z 21011KT 10SM CLR 20/07 A3004 RMK AO2 SLP172 T02000067

Closest aviation forecast (TAF) to Yorktown Power Station Heliport

Closest forecast is Newport News Williamsburg International Airport, 5.3 nm (9.8 km) SSW. Retrieved 2019/11/11 18:42 UTC (59 minutes ago):

TAF KPHF 111740Z 1118/1218 21011KT P6SM SCT250 FM112300 20008KT P6SM BKN250 FM121000 23009KT P6SM BKN120 FM121400 30009G17KT 4SM -RA BR SCT007 OVC015